sensor_id;sensor_type;location;lat;lon;timestamp;P1;durP1;ratioP1;P2;durP2;ratioP2
37411;SDS011;23278;52.110;6.050;2024-03-23T00:51:51;26.70;;;9.50;;
37411;SDS011;23278;52.110;6.050;2024-03-23T00:54:17;24.40;;;9.25;;
37411;SDS011;23278;52.110;6.050;2024-03-23T00:56:43;18.27;;;7.53;;
37411;SDS011;23278;52.110;6.050;2024-03-23T00:59:09;30.75;;;9.63;;
37411;SDS011;23278;52.110;6.050;2024-03-23T01:01:35;21.17;;;8.80;;
37411;SDS011;23278;52.110;6.050;2024-03-23T01:04:01;24.70;;;7.15;;
37411;SDS011;23278;52.110;6.050;2024-03-23T01:06:28;23.10;;;9.05;;
37411;SDS011;23278;52.110;6.050;2024-03-23T01:08:53;23.38;;;8.13;;
37411;SDS011;23278;52.110;6.050;2024-03-23T01:11:19;16.45;;;7.95;;
37411;SDS011;23278;52.110;6.050;2024-03-23T01:13:45;24.75;;;8.23;;
37411;SDS011;23278;52.110;6.050;2024-03-23T01:16:11;22.55;;;9.27;;
37411;SDS011;23278;52.110;6.050;2024-03-23T01:18:37;29.25;;;10.05;;
37411;SDS011;23278;52.110;6.050;2024-03-23T01:21:03;20.35;;;9.43;;
37411;SDS011;23278;52.110;6.050;2024-03-23T01:23:29;21.08;;;9.00;;
37411;SDS011;23278;52.110;6.050;2024-03-23T01:25:55;22.45;;;8.98;;
37411;SDS011;23278;52.110;6.050;2024-03-23T01:28:21;27.45;;;9.70;;
37411;SDS011;23278;52.110;6.050;2024-03-23T01:30:48;27.63;;;10.95;;
37411;SDS011;23278;52.110;6.050;2024-03-23T01:33:14;25.42;;;9.10;;
37411;SDS011;23278;52.110;6.050;2024-03-23T01:35:39;23.20;;;10.57;;
37411;SDS011;23278;52.110;6.050;2024-03-23T01:38:06;24.73;;;10.35;;
37411;SDS011;23278;52.110;6.050;2024-03-23T01:40:31;24.25;;;9.20;;
37411;SDS011;23278;52.110;6.050;2024-03-23T01:42:58;28.27;;;10.35;;
37411;SDS011;23278;52.110;6.050;2024-03-23T01:45:27;21.52;;;9.48;;
37411;SDS011;23278;52.110;6.050;2024-03-23T01:47:53;29.13;;;10.13;;
37411;SDS011;23278;52.110;6.050;2024-03-23T01:50:19;18.60;;;10.18;;
37411;SDS011;23278;52.110;6.050;2024-03-23T01:52:46;22.13;;;9.68;;
37411;SDS011;23278;52.110;6.050;2024-03-23T01:55:13;30.83;;;10.55;;
37411;SDS011;23278;52.110;6.050;2024-03-23T01:57:39;25.02;;;11.85;;
37411;SDS011;23278;52.110;6.050;2024-03-23T02:00:05;24.90;;;10.73;;
37411;SDS011;23278;52.110;6.050;2024-03-23T02:02:44;31.10;;;12.13;;
37411;SDS011;23278;52.110;6.050;2024-03-23T02:05:13;26.20;;;10.30;;
37411;SDS011;23278;52.110;6.050;2024-03-23T02:07:40;22.40;;;10.45;;
37411;SDS011;23278;52.110;6.050;2024-03-23T02:10:06;30.60;;;11.00;;
37411;SDS011;23278;52.110;6.050;2024-03-23T02:12:33;25.15;;;11.20;;
37411;SDS011;23278;52.110;6.050;2024-03-23T02:14:59;30.77;;;12.75;;
37411;SDS011;23278;52.110;6.050;2024-03-23T02:17:25;29.63;;;12.15;;
37411;SDS011;23278;52.110;6.050;2024-03-23T02:19:51;27.63;;;13.50;;
37411;SDS011;23278;52.110;6.050;2024-03-23T02:22:17;22.33;;;11.13;;
37411;SDS011;23278;52.110;6.050;2024-03-23T02:24:43;26.15;;;11.68;;
37411;SDS011;23278;52.110;6.050;2024-03-23T02:27:09;28.20;;;12.70;;
37411;SDS011;23278;52.110;6.050;2024-03-23T02:29:35;30.75;;;11.65;;
37411;SDS011;23278;52.110;6.050;2024-03-23T02:32:01;23.17;;;11.30;;
37411;SDS011;23278;52.110;6.050;2024-03-23T02:34:26;24.42;;;9.55;;
37411;SDS011;23278;52.110;6.050;2024-03-23T02:36:52;27.77;;;11.43;;
37411;SDS011;23278;52.110;6.050;2024-03-23T02:39:18;24.83;;;11.00;;
37411;SDS011;23278;52.110;6.050;2024-03-23T02:41:44;26.92;;;12.48;;
37411;SDS011;23278;52.110;6.050;2024-03-23T02:44:10;24.50;;;9.60;;
37411;SDS011;23278;52.110;6.050;2024-03-23T02:46:40;29.30;;;10.68;;
37411;SDS011;23278;52.110;6.050;2024-03-23T02:49:07;22.25;;;10.35;;
37411;SDS011;23278;52.110;6.050;2024-03-23T02:51:33;20.15;;;10.82;;
37411;SDS011;23278;52.110;6.050;2024-03-23T02:53:59;25.63;;;11.02;;
37411;SDS011;23278;52.110;6.050;2024-03-23T02:56:25;29.13;;;11.88;;
37411;SDS011;23278;52.110;6.050;2024-03-23T02:58:50;30.30;;;11.63;;
37411;SDS011;23278;52.110;6.050;2024-03-23T03:01:16;27.50;;;12.07;;
37411;SDS011;23278;52.110;6.050;2024-03-23T03:03:42;27.05;;;12.90;;
37411;SDS011;23278;52.110;6.050;2024-03-23T03:06:09;27.02;;;11.75;;
37411;SDS011;23278;52.110;6.050;2024-03-23T03:08:34;26.23;;;13.40;;
37411;SDS011;23278;52.110;6.050;2024-03-23T03:11:00;28.40;;;13.23;;
37411;SDS011;23278;52.110;6.050;2024-03-23T03:13:27;34.33;;;14.63;;
37411;SDS011;23278;52.110;6.050;2024-03-23T03:15:53;35.85;;;14.85;;
37411;SDS011;23278;52.110;6.050;2024-03-23T03:18:18;35.70;;;15.90;;
37411;SDS011;23278;52.110;6.050;2024-03-23T03:20:44;29.30;;;15.45;;
37411;SDS011;23278;52.110;6.050;2024-03-23T03:23:10;35.53;;;16.27;;
37411;SDS011;23278;52.110;6.050;2024-03-23T03:25:36;28.63;;;14.90;;
37411;SDS011;23278;52.110;6.050;2024-03-23T03:28:02;35.75;;;15.27;;
37411;SDS011;23278;52.110;6.050;2024-03-23T03:30:29;32.20;;;15.98;;
37411;SDS011;23278;52.110;6.050;2024-03-23T03:32:55;32.75;;;16.10;;
37411;SDS011;23278;52.110;6.050;2024-03-23T03:35:20;35.80;;;16.83;;
37411;SDS011;23278;52.110;6.050;2024-03-23T03:37:46;33.30;;;16.52;;
37411;SDS011;23278;52.110;6.050;2024-03-23T03:40:12;40.13;;;18.30;;
37411;SDS011;23278;52.110;6.050;2024-03-23T03:42:40;37.33;;;18.23;;
37411;SDS011;23278;52.110;6.050;2024-03-23T03:45:06;41.13;;;18.70;;
37411;SDS011;23278;52.110;6.050;2024-03-23T03:47:33;46.40;;;20.73;;
37411;SDS011;23278;52.110;6.050;2024-03-23T03:49:58;41.08;;;18.73;;
37411;SDS011;23278;52.110;6.050;2024-03-23T03:52:24;41.75;;;20.73;;
37411;SDS011;23278;52.110;6.050;2024-03-23T03:54:50;46.42;;;19.05;;
37411;SDS011;23278;52.110;6.050;2024-03-23T03:57:16;39.92;;;17.42;;
37411;SDS011;23278;52.110;6.050;2024-03-23T03:59:42;30.88;;;16.27;;
37411;SDS011;23278;52.110;6.050;2024-03-23T04:02:08;35.05;;;19.20;;
37411;SDS011;23278;52.110;6.050;2024-03-23T04:04:34;46.53;;;17.33;;
37411;SDS011;23278;52.110;6.050;2024-03-23T04:07:00;43.13;;;16.73;;
37411;SDS011;23278;52.110;6.050;2024-03-23T04:09:26;29.90;;;16.98;;
37411;SDS011;23278;52.110;6.050;2024-03-23T04:11:52;33.03;;;16.77;;
37411;SDS011;23278;52.110;6.050;2024-03-23T04:14:18;36.13;;;16.25;;
37411;SDS011;23278;52.110;6.050;2024-03-23T04:16:44;42.95;;;19.08;;
37411;SDS011;23278;52.110;6.050;2024-03-23T04:19:10;28.08;;;14.80;;
37411;SDS011;23278;52.110;6.050;2024-03-23T04:21:37;29.98;;;14.02;;
37411;SDS011;23278;52.110;6.050;2024-03-23T04:24:03;35.28;;;16.45;;
37411;SDS011;23278;52.110;6.050;2024-03-23T04:26:30;36.13;;;14.60;;
37411;SDS011;23278;52.110;6.050;2024-03-23T04:29:05;30.20;;;14.23;;
37411;SDS011;23278;52.110;6.050;2024-03-23T04:31:31;35.47;;;12.68;;
37411;SDS011;23278;52.110;6.050;2024-03-23T04:33:59;33.17;;;12.45;;
37411;SDS011;23278;52.110;6.050;2024-03-23T04:36:26;25.13;;;12.77;;
37411;SDS011;23278;52.110;6.050;2024-03-23T04:38:52;31.45;;;13.55;;
37411;SDS011;23278;52.110;6.050;2024-03-23T04:41:17;35.63;;;13.50;;
37411;SDS011;23278;52.110;6.050;2024-03-23T04:43:44;32.00;;;13.80;;
37411;SDS011;23278;52.110;6.050;2024-03-23T04:46:09;22.77;;;11.82;;
37411;SDS011;23278;52.110;6.050;2024-03-23T04:48:35;26.83;;;13.55;;
37411;SDS011;23278;52.110;6.050;2024-03-23T04:51:01;40.75;;;14.20;;
37411;SDS011;23278;52.110;6.050;2024-03-23T04:53:27;33.17;;;13.45;;
37411;SDS011;23278;52.110;6.050;2024-03-23T04:55:55;29.65;;;13.02;;
37411;SDS011;23278;52.110;6.050;2024-03-23T04:58:22;22.50;;;11.13;;
37411;SDS011;23278;52.110;6.050;2024-03-23T05:00:52;30.65;;;13.35;;
37411;SDS011;23278;52.110;6.050;2024-03-23T05:03:22;28.17;;;11.40;;
37411;SDS011;23278;52.110;6.050;2024-03-23T05:05:48;30.73;;;12.15;;
37411;SDS011;23278;52.110;6.050;2024-03-23T05:08:14;27.52;;;12.45;;
37411;SDS011;23278;52.110;6.050;2024-03-23T05:10:44;26.38;;;13.25;;
37411;SDS011;23278;52.110;6.050;2024-03-23T05:13:10;28.08;;;11.00;;
37411;SDS011;23278;52.110;6.050;2024-03-23T05:15:36;21.27;;;10.00;;
37411;SDS011;23278;52.110;6.050;2024-03-23T05:18:02;25.48;;;12.57;;
37411;SDS011;23278;52.110;6.050;2024-03-23T05:20:28;19.98;;;10.60;;
37411;SDS011;23278;52.110;6.050;2024-03-23T05:22:57;32.67;;;14.48;;
37411;SDS011;23278;52.110;6.050;2024-03-23T05:25:23;33.67;;;13.40;;
37411;SDS011;23278;52.110;6.050;2024-03-23T05:27:49;27.90;;;12.13;;
37411;SDS011;23278;52.110;6.050;2024-03-23T05:30:15;33.25;;;11.43;;
37411;SDS011;23278;52.110;6.050;2024-03-23T05:32:40;34.42;;;12.65;;
37411;SDS011;23278;52.110;6.050;2024-03-23T05:35:09;27.75;;;12.18;;
37411;SDS011;23278;52.110;6.050;2024-03-23T05:37:35;31.33;;;12.05;;
37411;SDS011;23278;52.110;6.050;2024-03-23T05:40:01;25.23;;;11.00;;
37411;SDS011;23278;52.110;6.050;2024-03-23T05:42:28;26.55;;;10.55;;
37411;SDS011;23278;52.110;6.050;2024-03-23T05:44:55;21.45;;;10.65;;
37411;SDS011;23278;52.110;6.050;2024-03-23T05:47:21;30.13;;;11.73;;
37411;SDS011;23278;52.110;6.050;2024-03-23T05:49:47;22.17;;;9.43;;
37411;SDS011;23278;52.110;6.050;2024-03-23T05:52:13;26.50;;;8.27;;
37411;SDS011;23278;52.110;6.050;2024-03-23T05:54:39;28.38;;;9.73;;
37411;SDS011;23278;52.110;6.050;2024-03-23T05:57:05;27.65;;;9.60;;
37411;SDS011;23278;52.110;6.050;2024-03-23T05:59:35;22.55;;;9.23;;
37411;SDS011;23278;52.110;6.050;2024-03-23T06:02:01;19.65;;;7.30;;
37411;SDS011;23278;52.110;6.050;2024-03-23T06:04:27;31.85;;;9.15;;
37411;SDS011;23278;52.110;6.050;2024-03-23T06:06:52;20.95;;;6.47;;
37411;SDS011;23278;52.110;6.050;2024-03-23T06:09:18;22.02;;;6.30;;
37411;SDS011;23278;52.110;6.050;2024-03-23T06:11:45;17.20;;;7.25;;
37411;SDS011;23278;52.110;6.050;2024-03-23T06:14:11;18.98;;;5.90;;
37411;SDS011;23278;52.110;6.050;2024-03-23T06:16:38;16.95;;;5.10;;
37411;SDS011;23278;52.110;6.050;2024-03-23T06:19:03;25.15;;;5.15;;
37411;SDS011;23278;52.110;6.050;2024-03-23T06:21:32;20.85;;;5.13;;
37411;SDS011;23278;52.110;6.050;2024-03-23T06:24:00;13.95;;;4.45;;
37411;SDS011;23278;52.110;6.050;2024-03-23T06:26:25;15.13;;;4.75;;
37411;SDS011;23278;52.110;6.050;2024-03-23T06:28:52;16.20;;;4.47;;
37411;SDS011;23278;52.110;6.050;2024-03-23T06:31:20;14.88;;;6.10;;
37411;SDS011;23278;52.110;6.050;2024-03-23T06:33:46;9.95;;;4.85;;
37411;SDS011;23278;52.110;6.050;2024-03-23T06:36:12;18.75;;;3.83;;
37411;SDS011;23278;52.110;6.050;2024-03-23T06:38:38;14.70;;;2.95;;
37411;SDS011;23278;52.110;6.050;2024-03-23T06:41:04;16.50;;;4.07;;
37411;SDS011;23278;52.110;6.050;2024-03-23T06:43:30;12.90;;;5.30;;
37411;SDS011;23278;52.110;6.050;2024-03-23T06:45:56;12.73;;;3.17;;
37411;SDS011;23278;52.110;6.050;2024-03-23T06:48:22;13.80;;;3.63;;
37411;SDS011;23278;52.110;6.050;2024-03-23T06:50:48;14.00;;;3.58;;
37411;SDS011;23278;52.110;6.050;2024-03-23T06:53:14;12.85;;;2.75;;
37411;SDS011;23278;52.110;6.050;2024-03-23T06:55:41;13.75;;;3.17;;
37411;SDS011;23278;52.110;6.050;2024-03-23T06:58:07;11.82;;;3.28;;
37411;SDS011;23278;52.110;6.050;2024-03-23T07:00:33;16.13;;;2.95;;
37411;SDS011;23278;52.110;6.050;2024-03-23T07:02:59;12.27;;;2.90;;
37411;SDS011;23278;52.110;6.050;2024-03-23T07:05:26;16.45;;;2.92;;
37411;SDS011;23278;52.110;6.050;2024-03-23T07:07:52;12.27;;;2.58;;
37411;SDS011;23278;52.110;6.050;2024-03-23T07:10:18;11.75;;;2.67;;
37411;SDS011;23278;52.110;6.050;2024-03-23T07:12:44;13.23;;;3.10;;
37411;SDS011;23278;52.110;6.050;2024-03-23T07:15:10;17.17;;;2.58;;
37411;SDS011;23278;52.110;6.050;2024-03-23T07:17:36;10.52;;;2.05;;
37411;SDS011;23278;52.110;6.050;2024-03-23T07:20:02;17.75;;;4.32;;
37411;SDS011;23278;52.110;6.050;2024-03-23T07:22:29;11.50;;;2.80;;
37411;SDS011;23278;52.110;6.050;2024-03-23T07:24:56;8.77;;;2.28;;
37411;SDS011;23278;52.110;6.050;2024-03-23T07:27:24;10.93;;;3.08;;
37411;SDS011;23278;52.110;6.050;2024-03-23T07:29:51;9.32;;;1.83;;
37411;SDS011;23278;52.110;6.050;2024-03-23T07:32:17;20.00;;;2.97;;
37411;SDS011;23278;52.110;6.050;2024-03-23T07:34:43;24.05;;;6.40;;
37411;SDS011;23278;52.110;6.050;2024-03-23T07:37:12;12.38;;;3.20;;
37411;SDS011;23278;52.110;6.050;2024-03-23T07:39:39;11.55;;;2.30;;
37411;SDS011;23278;52.110;6.050;2024-03-23T07:42:05;11.02;;;2.55;;
37411;SDS011;23278;52.110;6.050;2024-03-23T07:44:31;9.23;;;3.67;;
37411;SDS011;23278;52.110;6.050;2024-03-23T07:46:58;14.10;;;2.42;;
37411;SDS011;23278;52.110;6.050;2024-03-23T07:49:27;13.55;;;3.30;;
37411;SDS011;23278;52.110;6.050;2024-03-23T07:51:53;14.15;;;2.67;;
37411;SDS011;23278;52.110;6.050;2024-03-23T07:54:19;10.68;;;2.10;;
37411;SDS011;23278;52.110;6.050;2024-03-23T07:56:45;7.72;;;2.15;;
37411;SDS011;23278;52.110;6.050;2024-03-23T07:59:11;11.30;;;2.70;;
37411;SDS011;23278;52.110;6.050;2024-03-23T08:01:37;9.52;;;2.78;;
37411;SDS011;23278;52.110;6.050;2024-03-23T08:04:03;18.65;;;4.05;;
37411;SDS011;23278;52.110;6.050;2024-03-23T08:06:29;15.75;;;4.63;;
37411;SDS011;23278;52.110;6.050;2024-03-23T08:08:55;10.55;;;3.25;;
37411;SDS011;23278;52.110;6.050;2024-03-23T08:11:25;13.23;;;2.25;;
37411;SDS011;23278;52.110;6.050;2024-03-23T08:13:58;7.35;;;2.22;;
37411;SDS011;23278;52.110;6.050;2024-03-23T08:16:24;8.77;;;2.20;;
37411;SDS011;23278;52.110;6.050;2024-03-23T08:18:53;13.85;;;2.65;;
37411;SDS011;23278;52.110;6.050;2024-03-23T08:21:21;7.13;;;2.47;;
37411;SDS011;23278;52.110;6.050;2024-03-23T08:23:50;11.90;;;2.40;;
37411;SDS011;23278;52.110;6.050;2024-03-23T08:26:17;16.08;;;3.88;;
37411;SDS011;23278;52.110;6.050;2024-03-23T08:28:43;10.18;;;1.95;;
37411;SDS011;23278;52.110;6.050;2024-03-23T08:31:10;14.23;;;2.65;;
37411;SDS011;23278;52.110;6.050;2024-03-23T08:33:37;15.52;;;3.80;;
37411;SDS011;23278;52.110;6.050;2024-03-23T08:36:05;14.85;;;1.98;;
37411;SDS011;23278;52.110;6.050;2024-03-23T08:38:32;8.70;;;2.97;;
37411;SDS011;23278;52.110;6.050;2024-03-23T08:41:02;12.00;;;2.20;;
37411;SDS011;23278;52.110;6.050;2024-03-23T08:43:29;9.95;;;1.77;;
37411;SDS011;23278;52.110;6.050;2024-03-23T08:46:06;10.35;;;2.65;;
37411;SDS011;23278;52.110;6.050;2024-03-23T08:48:34;15.13;;;3.40;;
37411;SDS011;23278;52.110;6.050;2024-03-23T08:51:01;10.63;;;2.05;;
37411;SDS011;23278;52.110;6.050;2024-03-23T08:53:31;6.45;;;2.05;;
37411;SDS011;23278;52.110;6.050;2024-03-23T08:55:58;10.80;;;1.83;;
37411;SDS011;23278;52.110;6.050;2024-03-23T08:58:25;14.73;;;2.13;;
37411;SDS011;23278;52.110;6.050;2024-03-23T09:00:52;8.43;;;1.92;;
37411;SDS011;23278;52.110;6.050;2024-03-23T09:03:24;5.97;;;1.48;;
37411;SDS011;23278;52.110;6.050;2024-03-23T09:05:51;12.85;;;1.55;;
37411;SDS011;23278;52.110;6.050;2024-03-23T09:08:17;8.52;;;1.45;;
37411;SDS011;23278;52.110;6.050;2024-03-23T09:10:43;7.70;;;2.28;;
37411;SDS011;23278;52.110;6.050;2024-03-23T09:13:10;8.95;;;1.77;;
37411;SDS011;23278;52.110;6.050;2024-03-23T09:15:37;8.65;;;1.63;;
37411;SDS011;23278;52.110;6.050;2024-03-23T09:18:10;9.75;;;3.15;;
37411;SDS011;23278;52.110;6.050;2024-03-23T09:20:36;9.45;;;2.55;;
37411;SDS011;23278;52.110;6.050;2024-03-23T09:23:02;4.93;;;1.58;;
37411;SDS011;23278;52.110;6.050;2024-03-23T09:25:27;11.20;;;1.75;;
37411;SDS011;23278;52.110;6.050;2024-03-23T09:27:54;8.48;;;1.92;;
37411;SDS011;23278;52.110;6.050;2024-03-23T09:30:19;5.30;;;1.40;;
37411;SDS011;23278;52.110;6.050;2024-03-23T09:32:45;6.93;;;1.23;;
37411;SDS011;23278;52.110;6.050;2024-03-23T09:35:11;4.38;;;1.08;;
37411;SDS011;23278;52.110;6.050;2024-03-23T09:37:38;8.05;;;2.38;;
37411;SDS011;23278;52.110;6.050;2024-03-23T09:40:05;8.07;;;1.63;;
37411;SDS011;23278;52.110;6.050;2024-03-23T09:42:37;9.77;;;1.10;;
37411;SDS011;23278;52.110;6.050;2024-03-23T09:45:07;5.85;;;1.15;;
37411;SDS011;23278;52.110;6.050;2024-03-23T09:47:45;6.70;;;1.30;;
37411;SDS011;23278;52.110;6.050;2024-03-23T09:50:12;11.52;;;2.47;;
37411;SDS011;23278;52.110;6.050;2024-03-23T09:52:39;5.03;;;1.08;;
37411;SDS011;23278;52.110;6.050;2024-03-23T09:55:07;6.43;;;1.30;;
37411;SDS011;23278;52.110;6.050;2024-03-23T09:57:34;8.02;;;1.13;;
37411;SDS011;23278;52.110;6.050;2024-03-23T10:00:00;4.85;;;1.05;;
37411;SDS011;23278;52.110;6.050;2024-03-23T10:02:27;7.32;;;1.30;;
37411;SDS011;23278;52.110;6.050;2024-03-23T10:04:54;4.22;;;1.20;;
37411;SDS011;23278;52.110;6.050;2024-03-23T10:07:20;6.82;;;1.30;;
37411;SDS011;23278;52.110;6.050;2024-03-23T10:09:50;3.75;;;1.10;;
37411;SDS011;23278;52.110;6.050;2024-03-23T10:12:18;5.03;;;1.20;;
37411;SDS011;23278;52.110;6.050;2024-03-23T10:14:45;6.95;;;0.85;;
37411;SDS011;23278;52.110;6.050;2024-03-23T10:19:42;2.70;;;0.80;;
37411;SDS011;23278;52.110;6.050;2024-03-23T10:22:18;2.45;;;0.70;;
37411;SDS011;23278;52.110;6.050;2024-03-23T10:24:46;4.63;;;0.93;;
37411;SDS011;23278;52.110;6.050;2024-03-23T10:27:15;3.13;;;1.13;;
37411;SDS011;23278;52.110;6.050;2024-03-23T10:32:10;5.65;;;1.30;;
37411;SDS011;23278;52.110;6.050;2024-03-23T10:34:37;3.88;;;1.13;;
37411;SDS011;23278;52.110;6.050;2024-03-23T10:37:05;3.97;;;1.00;;
37411;SDS011;23278;52.110;6.050;2024-03-23T10:39:32;2.65;;;0.60;;
37411;SDS011;23278;52.110;6.050;2024-03-23T10:42:01;2.33;;;0.80;;
37411;SDS011;23278;52.110;6.050;2024-03-23T10:44:32;2.83;;;1.15;;
37411;SDS011;23278;52.110;6.050;2024-03-23T10:46:59;2.67;;;0.73;;
37411;SDS011;23278;52.110;6.050;2024-03-23T10:49:28;2.63;;;0.82;;
37411;SDS011;23278;52.110;6.050;2024-03-23T10:52:05;3.40;;;0.70;;
37411;SDS011;23278;52.110;6.050;2024-03-23T10:54:32;8.70;;;1.27;;
37411;SDS011;23278;52.110;6.050;2024-03-23T10:57:21;5.32;;;1.10;;
37411;SDS011;23278;52.110;6.050;2024-03-23T10:59:53;4.32;;;1.40;;
37411;SDS011;23278;52.110;6.050;2024-03-23T11:02:19;4.38;;;1.33;;
37411;SDS011;23278;52.110;6.050;2024-03-23T11:04:47;3.45;;;0.88;;
37411;SDS011;23278;52.110;6.050;2024-03-23T11:07:31;5.53;;;1.30;;
37411;SDS011;23278;52.110;6.050;2024-03-23T11:09:59;5.25;;;1.63;;
37411;SDS011;23278;52.110;6.050;2024-03-23T11:12:33;7.22;;;1.30;;
37411;SDS011;23278;52.110;6.050;2024-03-23T11:15:06;3.50;;;1.23;;
37411;SDS011;23278;52.110;6.050;2024-03-23T11:17:37;4.47;;;1.27;;
37411;SDS011;23278;52.110;6.050;2024-03-23T11:20:03;7.72;;;1.73;;
37411;SDS011;23278;52.110;6.050;2024-03-23T11:22:40;2.75;;;1.38;;
37411;SDS011;23278;52.110;6.050;2024-03-23T11:27:48;4.28;;;1.25;;
37411;SDS011;23278;52.110;6.050;2024-03-23T11:30:19;5.78;;;1.58;;
37411;SDS011;23278;52.110;6.050;2024-03-23T11:32:53;5.57;;;1.25;;
37411;SDS011;23278;52.110;6.050;2024-03-23T11:35:30;4.55;;;0.88;;
37411;SDS011;23278;52.110;6.050;2024-03-23T11:38:07;2.05;;;0.70;;
37411;SDS011;23278;52.110;6.050;2024-03-23T11:40:38;1.80;;;0.52;;
37411;SDS011;23278;52.110;6.050;2024-03-23T11:43:06;4.82;;;0.77;;
37411;SDS011;23278;52.110;6.050;2024-03-23T11:45:34;2.92;;;0.63;;
37411;SDS011;23278;52.110;6.050;2024-03-23T11:48:05;2.58;;;0.73;;
37411;SDS011;23278;52.110;6.050;2024-03-23T11:50:32;6.22;;;1.35;;
37411;SDS011;23278;52.110;6.050;2024-03-23T11:55:56;3.42;;;0.98;;
37411;SDS011;23278;52.110;6.050;2024-03-23T11:58:26;4.10;;;0.85;;
37411;SDS011;23278;52.110;6.050;2024-03-23T12:03:25;3.40;;;1.05;;
37411;SDS011;23278;52.110;6.050;2024-03-23T12:05:57;4.55;;;1.40;;
37411;SDS011;23278;52.110;6.050;2024-03-23T12:08:31;3.00;;;0.80;;
37411;SDS011;23278;52.110;6.050;2024-03-23T12:11:05;6.80;;;0.98;;
37411;SDS011;23278;52.110;6.050;2024-03-23T12:13:33;3.67;;;0.80;;
37411;SDS011;23278;52.110;6.050;2024-03-23T12:18:39;7.60;;;1.67;;
37411;SDS011;23278;52.110;6.050;2024-03-23T12:21:07;5.03;;;1.27;;
37411;SDS011;23278;52.110;6.050;2024-03-23T12:23:34;4.72;;;1.00;;
37411;SDS011;23278;52.110;6.050;2024-03-23T12:26:00;4.07;;;0.98;;
37411;SDS011;23278;52.110;6.050;2024-03-23T12:28:26;4.40;;;1.25;;
37411;SDS011;23278;52.110;6.050;2024-03-23T12:30:52;4.32;;;1.85;;
37411;SDS011;23278;52.110;6.050;2024-03-23T12:33:19;4.70;;;1.02;;
37411;SDS011;23278;52.110;6.050;2024-03-23T12:35:46;2.60;;;1.00;;
37411;SDS011;23278;52.110;6.050;2024-03-23T12:38:13;3.58;;;0.90;;
37411;SDS011;23278;52.110;6.050;2024-03-23T12:40:39;4.72;;;1.23;;
37411;SDS011;23278;52.110;6.050;2024-03-23T12:43:06;4.50;;;0.98;;
37411;SDS011;23278;52.110;6.050;2024-03-23T12:45:32;2.60;;;0.80;;
37411;SDS011;23278;52.110;6.050;2024-03-23T12:47:59;3.70;;;1.10;;
37411;SDS011;23278;52.110;6.050;2024-03-23T12:50:25;3.45;;;1.17;;
37411;SDS011;23278;52.110;6.050;2024-03-23T12:52:51;3.38;;;0.93;;
37411;SDS011;23278;52.110;6.050;2024-03-23T12:55:17;5.07;;;1.08;;
37411;SDS011;23278;52.110;6.050;2024-03-23T12:57:43;6.50;;;1.88;;
37411;SDS011;23278;52.110;6.050;2024-03-23T13:00:09;4.43;;;1.00;;
37411;SDS011;23278;52.110;6.050;2024-03-23T13:02:37;5.53;;;1.27;;
37411;SDS011;23278;52.110;6.050;2024-03-23T13:05:04;6.43;;;1.33;;
37411;SDS011;23278;52.110;6.050;2024-03-23T13:07:31;5.57;;;1.88;;
37411;SDS011;23278;52.110;6.050;2024-03-23T13:09:57;6.35;;;1.30;;
37411;SDS011;23278;52.110;6.050;2024-03-23T13:12:24;10.38;;;1.33;;
37411;SDS011;23278;52.110;6.050;2024-03-23T13:14:49;4.97;;;1.17;;
37411;SDS011;23278;52.110;6.050;2024-03-23T13:17:15;7.50;;;1.60;;
37411;SDS011;23278;52.110;6.050;2024-03-23T13:19:41;4.57;;;1.30;;
37411;SDS011;23278;52.110;6.050;2024-03-23T13:22:07;6.30;;;1.25;;
37411;SDS011;23278;52.110;6.050;2024-03-23T13:24:33;7.63;;;1.65;;
37411;SDS011;23278;52.110;6.050;2024-03-23T13:26:59;3.63;;;1.25;;
37411;SDS011;23278;52.110;6.050;2024-03-23T13:29:25;5.53;;;1.10;;
37411;SDS011;23278;52.110;6.050;2024-03-23T13:31:51;6.25;;;1.38;;
37411;SDS011;23278;52.110;6.050;2024-03-23T13:34:18;7.78;;;1.23;;
37411;SDS011;23278;52.110;6.050;2024-03-23T13:36:44;8.50;;;1.80;;
37411;SDS011;23278;52.110;6.050;2024-03-23T13:39:11;3.42;;;1.10;;
37411;SDS011;23278;52.110;6.050;2024-03-23T13:41:41;6.07;;;1.67;;
37411;SDS011;23278;52.110;6.050;2024-03-23T13:44:11;6.75;;;0.98;;
37411;SDS011;23278;52.110;6.050;2024-03-23T13:46:39;5.90;;;0.90;;
37411;SDS011;23278;52.110;6.050;2024-03-23T13:49:09;2.35;;;1.00;;
37411;SDS011;23278;52.110;6.050;2024-03-23T13:51:55;3.60;;;1.17;;
37411;SDS011;23278;52.110;6.050;2024-03-23T13:54:25;5.43;;;0.90;;
37411;SDS011;23278;52.110;6.050;2024-03-23T13:56:52;4.68;;;0.90;;
37411;SDS011;23278;52.110;6.050;2024-03-23T13:59:20;7.13;;;0.98;;
37411;SDS011;23278;52.110;6.050;2024-03-23T14:01:48;5.95;;;1.00;;
37411;SDS011;23278;52.110;6.050;2024-03-23T14:04:15;5.95;;;1.70;;
37411;SDS011;23278;52.110;6.050;2024-03-23T14:06:45;4.60;;;0.95;;
37411;SDS011;23278;52.110;6.050;2024-03-23T14:09:12;4.72;;;1.23;;
37411;SDS011;23278;52.110;6.050;2024-03-23T14:11:39;4.15;;;1.42;;
37411;SDS011;23278;52.110;6.050;2024-03-23T14:14:07;6.35;;;0.90;;
37411;SDS011;23278;52.110;6.050;2024-03-23T14:16:33;2.13;;;0.77;;
37411;SDS011;23278;52.110;6.050;2024-03-23T14:18:59;2.08;;;0.90;;
37411;SDS011;23278;52.110;6.050;2024-03-23T14:21:25;1.55;;;0.60;;
37411;SDS011;23278;52.110;6.050;2024-03-23T14:23:51;1.75;;;0.70;;
37411;SDS011;23278;52.110;6.050;2024-03-23T14:26:17;2.17;;;0.73;;
37411;SDS011;23278;52.110;6.050;2024-03-23T14:28:43;1.80;;;0.73;;
37411;SDS011;23278;52.110;6.050;2024-03-23T14:31:09;3.25;;;0.70;;
37411;SDS011;23278;52.110;6.050;2024-03-23T14:33:38;3.60;;;0.70;;
37411;SDS011;23278;52.110;6.050;2024-03-23T14:36:07;2.47;;;0.80;;
37411;SDS011;23278;52.110;6.050;2024-03-23T14:38:33;1.88;;;0.73;;
37411;SDS011;23278;52.110;6.050;2024-03-23T14:40:59;2.33;;;0.70;;
37411;SDS011;23278;52.110;6.050;2024-03-23T14:43:26;3.17;;;1.02;;
37411;SDS011;23278;52.110;6.050;2024-03-23T14:48:36;4.43;;;0.80;;
37411;SDS011;23278;52.110;6.050;2024-03-23T14:51:02;1.67;;;0.60;;
37411;SDS011;23278;52.110;6.050;2024-03-23T14:53:31;2.83;;;0.70;;
37411;SDS011;23278;52.110;6.050;2024-03-23T14:55:57;3.80;;;0.80;;
37411;SDS011;23278;52.110;6.050;2024-03-23T14:58:25;2.90;;;1.15;;
37411;SDS011;23278;52.110;6.050;2024-03-23T15:00:51;2.70;;;0.75;;
37411;SDS011;23278;52.110;6.050;2024-03-23T15:03:17;6.20;;;0.90;;
37411;SDS011;23278;52.110;6.050;2024-03-23T15:05:56;2.75;;;1.52;;
37411;SDS011;23278;52.110;6.050;2024-03-23T15:08:23;7.95;;;1.15;;
37411;SDS011;23278;52.110;6.050;2024-03-23T15:10:49;2.97;;;0.90;;
37411;SDS011;23278;52.110;6.050;2024-03-23T15:13:15;5.07;;;1.17;;
37411;SDS011;23278;52.110;6.050;2024-03-23T15:15:42;1.90;;;0.90;;
37411;SDS011;23278;52.110;6.050;2024-03-23T15:18:13;2.40;;;0.70;;
37411;SDS011;23278;52.110;6.050;2024-03-23T15:20:56;4.78;;;1.52;;
37411;SDS011;23278;52.110;6.050;2024-03-23T15:23:27;6.05;;;0.80;;
37411;SDS011;23278;52.110;6.050;2024-03-23T15:26:00;4.82;;;1.55;;
37411;SDS011;23278;52.110;6.050;2024-03-23T15:28:26;3.95;;;1.20;;
37411;SDS011;23278;52.110;6.050;2024-03-23T15:31:28;6.72;;;1.38;;
37411;SDS011;23278;52.110;6.050;2024-03-23T15:33:55;4.75;;;1.08;;
37411;SDS011;23278;52.110;6.050;2024-03-23T15:36:21;4.15;;;1.23;;
37411;SDS011;23278;52.110;6.050;2024-03-23T15:38:47;5.20;;;1.05;;
37411;SDS011;23278;52.110;6.050;2024-03-23T15:41:14;3.33;;;1.05;;
37411;SDS011;23278;52.110;6.050;2024-03-23T15:43:40;4.28;;;1.50;;
37411;SDS011;23278;52.110;6.050;2024-03-23T15:46:06;4.45;;;1.02;;